createdAt,value
2023-11-20T00:00:19.249Z,12.95
2023-11-20T00:02:48.520Z,14.85
2023-11-20T00:05:16.416Z,15.27
2023-11-20T00:07:44.222Z,14.57
2023-11-20T00:10:12.209Z,13.70
2023-11-20T00:12:39.970Z,14.88
2023-11-20T00:15:09.577Z,15.45
2023-11-20T00:17:38.261Z,14.23
2023-11-20T00:20:08.633Z,12.00
2023-11-20T00:22:36.371Z,14.13
2023-11-20T00:25:04.463Z,14.45
2023-11-20T00:27:32.385Z,12.95
2023-11-20T00:30:00.178Z,13.85
2023-11-20T00:32:28.892Z,13.95
2023-11-20T00:34:56.656Z,13.27
2023-11-20T00:37:25.835Z,14.35
2023-11-20T00:39:53.735Z,13.00
2023-11-20T00:42:21.492Z,13.38
2023-11-20T00:44:49.272Z,11.95
2023-11-20T00:47:17.816Z,14.32
2023-11-20T00:49:45.870Z,16.02
2023-11-20T00:52:13.969Z,13.13
2023-11-20T00:54:43.097Z,14.85
2023-11-20T00:57:11.133Z,13.13
2023-11-20T00:59:38.904Z,16.58
2023-11-20T01:02:08.048Z,12.68
2023-11-20T01:04:36.391Z,13.00
2023-11-20T01:07:04.938Z,12.60
2023-11-20T01:09:32.692Z,15.23
2023-11-20T01:12:01.791Z,15.30
2023-11-20T01:14:29.551Z,13.88
2023-11-20T01:16:58.411Z,13.85
2023-11-20T01:19:26.248Z,13.63
2023-11-20T01:21:54.166Z,12.57
2023-11-20T01:24:21.957Z,14.40
2023-11-20T01:26:50.349Z,12.07
2023-11-20T01:29:19.472Z,17.42
2023-11-20T01:31:47.270Z,12.60
2023-11-20T01:34:15.086Z,12.82
2023-11-20T01:36:42.869Z,14.95
2023-11-20T01:39:11.028Z,14.25
2023-11-20T01:41:38.921Z,13.90
2023-11-20T01:44:07.428Z,15.77
2023-11-20T01:46:37.970Z,14.90
2023-11-20T01:49:06.808Z,13.75
2023-11-20T01:51:35.839Z,17.10
2023-11-20T01:54:05.692Z,13.38
2023-11-20T01:56:34.819Z,12.13
2023-11-20T01:59:07.027Z,12.48
2023-11-20T02:01:36.476Z,14.20
2023-11-20T02:04:05.970Z,13.27
2023-11-20T02:06:34.336Z,13.88
2023-11-20T02:09:02.381Z,12.00
2023-11-20T02:11:30.936Z,15.20
2023-11-20T02:13:58.788Z,12.07
2023-11-20T02:16:26.734Z,13.35
2023-11-20T02:18:55.894Z,14.10
2023-11-20T02:21:23.682Z,13.63
2023-11-20T02:23:51.694Z,13.10
2023-11-20T02:26:41.450Z,14.00
2023-11-20T02:29:22.635Z,11.27
2023-11-20T02:31:51.863Z,12.85
2023-11-20T02:34:21.236Z,14.63
2023-11-20T02:36:49.861Z,12.45
2023-11-20T02:39:17.761Z,14.98
2023-11-20T02:41:46.361Z,12.32
2023-11-20T02:44:14.375Z,12.48
2023-11-20T02:46:44.375Z,13.65
2023-11-20T02:49:14.648Z,14.93
2023-11-20T02:51:43.601Z,15.38
2023-11-20T02:54:14.551Z,13.05
2023-11-20T02:56:42.814Z,15.55
2023-11-20T02:59:10.726Z,14.40
2023-11-20T03:01:38.617Z,13.20
2023-11-20T03:04:07.193Z,13.45
2023-11-20T03:06:36.464Z,13.90
2023-11-20T03:09:04.891Z,13.63
2023-11-20T03:11:33.266Z,14.73
2023-11-20T03:14:01.707Z,15.63
2023-11-20T03:16:29.792Z,10.48
2023-11-20T03:18:59.094Z,11.38
2023-11-20T03:21:27.390Z,15.30
2023-11-20T03:23:56.825Z,13.30
2023-11-20T03:26:24.865Z,13.48
2023-11-20T03:28:52.953Z,13.55
2023-11-20T03:31:21.319Z,12.60
2023-11-20T03:33:49.572Z,14.85
2023-11-20T03:36:17.681Z,12.65
2023-11-20T03:38:45.698Z,12.68
2023-11-20T03:41:15.170Z,12.60
2023-11-20T03:43:43.047Z,12.60
2023-11-20T03:46:12.833Z,12.45
2023-11-20T03:48:40.790Z,11.38
2023-11-20T03:51:08.888Z,10.70
2023-11-20T03:53:36.918Z,13.65
2023-11-20T03:56:05.119Z,11.77
2023-11-20T03:58:34.426Z,13.75
2023-11-20T04:01:03.760Z,11.85
2023-11-20T04:03:32.076Z,12.98
2023-11-20T04:05:59.918Z,10.25
2023-11-20T04:08:27.797Z,13.35
2023-11-20T04:10:55.676Z,12.82
2023-11-20T04:13:23.619Z,11.88
2023-11-20T04:15:52.883Z,9.98
2023-11-20T04:18:21.280Z,12.00
2023-11-20T04:20:52.282Z,14.32
2023-11-20T04:23:20.598Z,12.57
2023-11-20T04:25:48.499Z,11.25
2023-11-20T04:28:16.493Z,10.25
2023-11-20T04:30:44.609Z,12.32
2023-11-20T04:33:13.896Z,13.95
2023-11-20T04:35:43.324Z,12.38
2023-11-20T04:38:11.348Z,10.98
2023-11-20T04:40:39.299Z,14.00
2023-11-20T04:43:07.134Z,12.82
2023-11-20T04:45:35.001Z,14.85
2023-11-20T04:48:04.929Z,12.30
2023-11-20T04:50:34.507Z,13.75
2023-11-20T04:53:02.486Z,18.60
2023-11-20T04:55:30.589Z,12.13
2023-11-20T04:57:59.437Z,12.93
2023-11-20T05:00:29.680Z,11.07
2023-11-20T05:02:57.816Z,10.07
2023-11-20T05:05:25.862Z,10.05
2023-11-20T05:07:55.750Z,11.95
2023-11-20T05:10:23.722Z,13.15
2023-11-20T05:12:52.267Z,12.05
2023-11-20T05:15:20.234Z,10.77
2023-11-20T05:17:48.769Z,13.50
2023-11-20T05:20:17.387Z,12.95
2023-11-20T05:22:47.636Z,12.00
2023-11-20T05:25:17.369Z,12.35
2023-11-20T05:27:45.729Z,11.82
2023-11-20T05:30:15.068Z,11.98
2023-11-20T05:32:42.986Z,10.48
2023-11-20T05:35:11.001Z,12.73
2023-11-20T05:37:38.995Z,14.15
2023-11-20T05:40:08.002Z,11.27
2023-11-20T05:42:37.432Z,12.07
2023-11-20T05:45:06.723Z,13.27
2023-11-20T05:47:34.814Z,13.45
2023-11-20T05:50:04.424Z,12.45
2023-11-20T05:52:33.725Z,14.35
2023-11-20T05:55:03.599Z,11.93
2023-11-20T05:57:32.127Z,13.20
2023-11-20T06:00:01.360Z,12.70
2023-11-20T06:02:29.343Z,12.68
2023-11-20T06:04:57.141Z,12.43
2023-11-20T06:07:25.233Z,15.40
2023-11-20T06:09:53.035Z,12.23
2023-11-20T06:12:21.044Z,14.10
2023-11-20T06:14:49.007Z,15.88
2023-11-20T06:17:18.923Z,16.02
2023-11-20T06:19:46.851Z,10.32
2023-11-20T06:22:15.249Z,11.60
2023-11-20T06:24:44.032Z,15.25
2023-11-20T06:27:12.015Z,12.95
2023-11-20T06:29:42.476Z,13.68
2023-11-20T06:32:11.538Z,18.92
2023-11-20T06:34:40.780Z,25.73
2023-11-20T06:37:08.983Z,16.60
2023-11-20T06:39:37.701Z,23.23
2023-11-20T06:42:06.197Z,16.27
2023-11-20T06:44:34.117Z,19.48
2023-11-20T06:47:02.150Z,16.50
2023-11-20T06:49:30.209Z,13.18
2023-11-20T06:51:59.431Z,20.52
2023-11-20T06:54:27.314Z,25.40
2023-11-20T06:56:55.758Z,16.33
2023-11-20T06:59:24.075Z,19.90
2023-11-20T07:01:51.974Z,22.17
2023-11-20T07:04:20.231Z,24.58
2023-11-20T07:06:48.670Z,26.02
2023-11-20T07:09:19.632Z,24.27
2023-11-20T07:11:47.937Z,21.42
2023-11-20T07:14:16.130Z,29.23
2023-11-20T07:16:44.146Z,26.80
2023-11-20T07:19:12.052Z,36.60
2023-11-20T07:21:40.988Z,34.03
2023-11-20T07:24:09.320Z,32.00
2023-11-20T07:26:39.676Z,33.22
2023-11-20T07:29:07.688Z,26.38
2023-11-20T07:31:37.986Z,30.27
2023-11-20T07:34:08.152Z,27.67
2023-11-20T07:36:36.091Z,22.65
2023-11-20T07:39:04.994Z,24.73
2023-11-20T07:41:32.972Z,28.33
2023-11-20T07:44:02.297Z,25.17
2023-11-20T07:46:30.698Z,27.30
2023-11-20T07:48:59.428Z,21.05
2023-11-20T07:51:29.233Z,22.08
2023-11-20T07:53:57.212Z,21.13
2023-11-20T07:56:25.164Z,19.88
2023-11-20T07:58:53.600Z,24.33
2023-11-20T08:01:24.254Z,22.52
2023-11-20T08:03:55.097Z,25.35
2023-11-20T08:06:24.081Z,20.35
2023-11-20T08:08:51.959Z,21.20
2023-11-20T08:11:19.773Z,21.77
2023-11-20T08:13:47.726Z,26.90
2023-11-20T08:16:15.787Z,21.58
2023-11-20T08:18:45.025Z,25.50
2023-11-20T08:21:12.906Z,29.48
2023-11-20T08:23:40.812Z,25.77
2023-11-20T08:26:08.723Z,19.88
2023-11-20T08:28:36.708Z,27.15
2023-11-20T08:31:07.296Z,23.85
2023-11-20T08:33:36.279Z,25.83
2023-11-20T08:36:06.837Z,22.98
2023-11-20T08:38:34.835Z,23.15
2023-11-20T08:41:03.616Z,25.60
2023-11-20T08:43:33.875Z,25.13
2023-11-20T08:46:09.155Z,22.33
2023-11-20T08:48:43.020Z,15.70
2023-11-20T08:51:12.416Z,17.30
2023-11-20T08:53:40.430Z,20.02
2023-11-20T08:56:11.281Z,19.05
2023-11-20T08:58:39.254Z,18.65
2023-11-20T09:01:07.321Z,13.82
2023-11-20T09:03:35.313Z,17.65
2023-11-20T09:06:05.381Z,16.00
2023-11-20T09:08:34.711Z,22.77
2023-11-20T09:11:03.497Z,16.65
2023-11-20T09:13:31.478Z,17.13
2023-11-20T09:16:00.145Z,13.40
2023-11-20T09:18:28.998Z,16.90
2023-11-20T09:21:00.175Z,19.08
2023-11-20T09:23:29.071Z,15.95
2023-11-20T09:25:58.946Z,16.17
2023-11-20T09:28:27.113Z,14.93
2023-11-20T09:30:55.809Z,14.73
2023-11-20T09:33:23.803Z,15.25
2023-11-20T09:35:51.773Z,12.07
2023-11-20T09:38:19.704Z,13.18
2023-11-20T09:40:47.853Z,18.00
2023-11-20T09:43:19.802Z,11.32
2023-11-20T09:45:53.373Z,13.80
2023-11-20T09:48:27.501Z,22.30
2023-11-20T09:51:07.253Z,18.20
2023-11-20T09:53:41.461Z,13.15
2023-11-20T09:56:12.335Z,13.82
2023-11-20T09:58:43.005Z,14.15
2023-11-20T10:01:15.308Z,10.82
2023-11-20T10:03:45.307Z,8.40
2023-11-20T10:06:16.487Z,9.45
2023-11-20T10:08:45.554Z,7.32
2023-11-20T10:11:17.390Z,7.45
2023-11-20T10:13:46.943Z,5.60
2023-11-20T10:16:19.413Z,6.72
2023-11-20T10:18:47.744Z,6.57
2023-11-20T10:21:15.835Z,6.45
2023-11-20T10:23:43.958Z,5.82
2023-11-20T10:26:12.303Z,5.07
2023-11-20T10:28:40.837Z,4.68
2023-11-20T10:31:10.586Z,9.20
2023-11-20T10:33:39.354Z,4.50
2023-11-20T10:36:15.159Z,5.80
2023-11-20T10:38:44.383Z,4.78
2023-11-20T10:41:13.139Z,4.40
2023-11-20T10:43:42.965Z,4.65
2023-11-20T10:46:12.686Z,5.63
2023-11-20T10:48:41.309Z,8.60
2023-11-20T10:51:10.914Z,5.43
2023-11-20T10:53:43.850Z,6.93
2023-11-20T10:56:13.931Z,7.38
2023-11-20T10:58:42.758Z,6.25
2023-11-20T11:01:12.282Z,16.80
2023-11-20T11:03:42.386Z,21.80
2023-11-20T11:06:13.049Z,10.68
2023-11-20T11:08:45.504Z,15.75
2023-11-20T11:11:15.868Z,21.15
2023-11-20T11:13:46.089Z,26.55
2023-11-20T11:16:26.271Z,21.08
2023-11-20T11:19:07.896Z,20.20
2023-11-20T11:21:45.673Z,15.07
2023-11-20T11:24:16.064Z,16.92
2023-11-20T11:26:53.667Z,22.42
2023-11-20T11:29:26.888Z,18.95
2023-11-20T11:32:21.759Z,10.55
2023-11-20T11:35:08.572Z,15.20
2023-11-20T11:37:47.273Z,8.80
2023-11-20T11:40:22.566Z,10.30
2023-11-20T11:42:57.621Z,13.25
2023-11-20T11:45:32.184Z,16.67
2023-11-20T11:48:02.894Z,9.65
2023-11-20T11:50:30.852Z,14.93
2023-11-20T11:52:59.885Z,11.35
2023-11-20T11:55:28.247Z,9.05
2023-11-20T11:58:04.134Z,8.20
2023-11-20T12:00:33.557Z,7.60
2023-11-20T12:03:10.193Z,6.43
2023-11-20T12:06:19.383Z,8.23
2023-11-20T12:08:49.680Z,8.40
2023-11-20T12:11:50.379Z,8.10
2023-11-20T12:14:18.353Z,6.78
2023-11-20T12:16:47.071Z,7.50
2023-11-20T12:19:17.866Z,8.20
2023-11-20T12:21:46.264Z,5.28
2023-11-20T12:24:14.697Z,7.20
2023-11-20T12:26:44.258Z,7.88
2023-11-20T12:29:12.811Z,5.38
2023-11-20T12:31:40.873Z,6.18
2023-11-20T12:34:09.437Z,5.90
2023-11-20T12:36:39.913Z,6.00
2023-11-20T12:39:09.888Z,6.50
2023-11-20T12:41:37.906Z,7.63
2023-11-20T12:44:06.224Z,6.13
2023-11-20T12:46:34.207Z,6.15
2023-11-20T12:49:03.476Z,6.47
2023-11-20T12:51:31.527Z,6.13
2023-11-20T12:54:02.288Z,7.45
2023-11-20T12:56:30.703Z,6.53
2023-11-20T12:58:59.052Z,7.45
2023-11-20T13:01:27.401Z,10.77
2023-11-20T13:03:55.802Z,10.35
2023-11-20T13:06:23.894Z,10.98
2023-11-20T13:08:51.799Z,8.85
2023-11-20T13:11:23.721Z,6.35
2023-11-20T13:13:52.570Z,8.02
2023-11-20T13:16:41.004Z,8.45
2023-11-20T13:19:09.246Z,8.45
2023-11-20T13:21:37.390Z,7.95
2023-11-20T13:24:07.333Z,6.68
2023-11-20T13:26:44.322Z,7.28
2023-11-20T13:29:12.548Z,11.07
2023-11-20T13:31:43.338Z,8.43
2023-11-20T13:34:11.441Z,10.25
2023-11-20T13:36:39.936Z,8.32
2023-11-20T13:39:11.612Z,8.98
2023-11-20T13:41:42.303Z,11.00
2023-11-20T13:44:10.654Z,7.95
2023-11-20T13:46:43.233Z,8.00
2023-11-20T13:49:12.132Z,11.30
2023-11-20T13:51:40.574Z,10.98
2023-11-20T13:54:10.819Z,11.38
2023-11-20T13:56:39.461Z,12.13
2023-11-20T13:59:10.583Z,8.43
2023-11-20T14:01:40.245Z,12.05
2023-11-20T14:04:11.014Z,11.07
2023-11-20T14:06:39.973Z,14.43
2023-11-20T14:09:08.087Z,12.55
2023-11-20T14:11:36.204Z,14.70
2023-11-20T14:14:04.489Z,14.38
2023-11-20T14:16:33.945Z,14.23
2023-11-20T14:19:02.049Z,14.35
2023-11-20T14:21:30.153Z,14.45
2023-11-20T14:23:58.031Z,19.15
2023-11-20T14:26:32.225Z,13.93
2023-11-20T14:29:02.870Z,16.00
2023-11-20T14:31:32.136Z,12.27
2023-11-20T14:34:01.626Z,10.98
2023-11-20T14:36:29.483Z,16.70
2023-11-20T14:38:59.592Z,13.18
2023-11-20T14:41:28.016Z,9.55
2023-11-20T14:43:55.912Z,9.57
2023-11-20T14:46:24.139Z,10.48
2023-11-20T14:48:52.162Z,15.07
2023-11-20T14:51:22.141Z,10.68
2023-11-20T14:53:52.495Z,10.30
2023-11-20T14:56:20.897Z,8.85
2023-11-20T14:58:48.809Z,11.00
2023-11-20T15:01:18.280Z,11.00
2023-11-20T15:03:46.446Z,12.48
2023-11-20T15:06:15.328Z,9.65
2023-11-20T15:08:44.987Z,10.38
2023-11-20T15:11:12.968Z,11.85
2023-11-20T15:13:41.289Z,12.07
2023-11-20T15:16:09.518Z,13.13
2023-11-20T15:18:37.996Z,11.68
2023-11-20T15:21:07.058Z,11.95
2023-11-20T15:23:42.539Z,13.48
2023-11-20T15:26:14.000Z,14.15
2023-11-20T15:28:41.986Z,15.88
2023-11-20T15:31:09.933Z,14.90
2023-11-20T15:33:43.540Z,14.80
2023-11-20T15:36:11.963Z,16.48
2023-11-20T15:38:39.840Z,18.00
2023-11-20T15:41:09.073Z,19.00
2023-11-20T15:43:38.519Z,18.45
2023-11-20T15:46:14.250Z,15.25
2023-11-20T15:48:42.376Z,21.38
2023-11-20T15:51:10.512Z,17.50
2023-11-20T15:53:38.506Z,14.80
2023-11-20T15:56:10.822Z,17.40
2023-11-20T15:58:41.444Z,20.42
2023-11-20T16:01:10.151Z,27.13
2023-11-20T16:03:38.787Z,36.78
2023-11-20T16:06:10.332Z,19.45
2023-11-20T16:08:41.416Z,19.35
2023-11-20T16:11:21.775Z,23.80
2023-11-20T16:13:51.774Z,16.23
2023-11-20T16:16:21.188Z,17.67
2023-11-20T16:18:55.052Z,13.82
2023-11-20T16:21:25.689Z,13.95
2023-11-20T16:23:59.758Z,18.02
2023-11-20T16:26:28.197Z,13.45
2023-11-20T16:29:13.988Z,17.63
2023-11-20T16:31:58.552Z,10.82
2023-11-20T16:34:34.838Z,13.93
2023-11-20T16:37:06.727Z,22.10
2023-11-20T16:39:34.663Z,15.18
2023-11-20T16:42:02.943Z,14.32
2023-11-20T16:44:32.524Z,16.83
2023-11-20T16:47:00.556Z,15.02
2023-11-20T16:49:29.113Z,17.17
2023-11-20T16:51:58.306Z,13.40
2023-11-20T16:54:27.191Z,14.40
2023-11-20T16:56:58.133Z,14.50
2023-11-20T16:59:27.311Z,13.40
2023-11-20T17:01:57.012Z,11.48
2023-11-20T17:04:25.638Z,17.08
2023-11-20T17:07:04.364Z,12.43
2023-11-20T17:09:32.521Z,16.23
2023-11-20T17:12:05.551Z,14.52
2023-11-20T17:14:34.433Z,16.48
2023-11-20T17:17:03.909Z,18.48
2023-11-20T17:19:31.915Z,14.50
2023-11-20T17:22:00.309Z,14.82
2023-11-20T17:24:30.634Z,19.48
2023-11-20T17:26:58.521Z,16.90
2023-11-20T17:29:26.631Z,18.92
2023-11-20T17:31:55.080Z,17.08
2023-11-20T17:34:24.683Z,14.68
2023-11-20T17:36:52.602Z,14.60
2023-11-20T17:39:23.884Z,16.17
2023-11-20T17:41:53.057Z,16.58
2023-11-20T17:44:20.881Z,21.80
2023-11-20T17:46:48.937Z,14.00
2023-11-20T17:49:16.872Z,14.55
2023-11-20T17:51:48.537Z,13.45
2023-11-20T17:54:16.528Z,14.40
2023-11-20T17:56:48.107Z,14.50
2023-11-20T17:59:18.373Z,15.63
2023-11-20T18:01:46.520Z,12.43
2023-11-20T18:04:14.946Z,14.40
2023-11-20T18:06:43.013Z,14.43
2023-11-20T18:09:14.291Z,12.05
2023-11-20T18:11:42.337Z,10.85
2023-11-20T18:14:10.475Z,12.63
2023-11-20T18:16:39.011Z,12.75
2023-11-20T18:19:07.543Z,15.50
2023-11-20T18:21:43.441Z,14.65
2023-11-20T18:24:18.024Z,14.90
2023-11-20T18:26:46.339Z,16.98
2023-11-20T18:29:16.245Z,15.07
2023-11-20T18:31:45.352Z,12.52
2023-11-20T18:34:13.581Z,15.02
2023-11-20T18:36:41.488Z,15.30
2023-11-20T18:39:09.679Z,17.58
2023-11-20T18:41:43.457Z,17.42
2023-11-20T18:44:14.260Z,15.75
2023-11-20T18:46:42.282Z,17.35
2023-11-20T18:49:10.746Z,19.00
2023-11-20T18:51:38.893Z,15.05
2023-11-20T18:54:08.081Z,17.40
2023-11-20T18:56:36.113Z,16.80
2023-11-20T18:59:05.463Z,18.33
2023-11-20T19:01:33.676Z,17.65
2023-11-20T19:04:03.635Z,15.82
2023-11-20T19:06:31.728Z,19.80
2023-11-20T19:08:59.996Z,18.92
2023-11-20T19:11:28.169Z,24.17
2023-11-20T19:13:56.178Z,21.50
2023-11-20T19:16:25.784Z,21.75
2023-11-20T19:18:54.042Z,21.15
2023-11-20T19:21:22.162Z,23.40
2023-11-20T19:23:50.115Z,17.85
2023-11-20T19:26:18.212Z,19.40
2023-11-20T19:28:46.205Z,16.25
2023-11-20T19:31:14.262Z,16.88
2023-11-20T19:33:45.857Z,16.20
2023-11-20T19:36:13.759Z,20.58
2023-11-20T19:38:42.214Z,19.05
2023-11-20T19:41:10.277Z,19.05
2023-11-20T19:43:38.361Z,18.60
2023-11-20T19:46:07.381Z,17.38
2023-11-20T19:48:35.464Z,19.83
2023-11-20T19:51:05.972Z,17.15
2023-11-20T19:53:35.071Z,18.52
2023-11-20T19:56:04.182Z,19.85
2023-11-20T19:58:32.124Z,18.58
2023-11-20T20:01:00.329Z,22.33
2023-11-20T20:03:29.177Z,20.88
2023-11-20T20:05:57.046Z,18.35
2023-11-20T20:08:26.512Z,21.50
2023-11-20T20:10:54.525Z,25.08
2023-11-20T20:13:25.396Z,22.23
2023-11-20T20:15:53.523Z,26.27
2023-11-20T20:18:21.693Z,23.98
2023-11-20T20:20:49.815Z,27.60
2023-11-20T20:23:20.605Z,22.40
2023-11-20T20:25:50.031Z,24.88
2023-11-20T20:28:18.107Z,28.13
2023-11-20T20:30:46.478Z,25.42
2023-11-20T20:33:14.817Z,25.10
2023-11-20T20:35:42.917Z,25.58
2023-11-20T20:38:11.282Z,19.25
2023-11-20T20:40:39.473Z,18.60
2023-11-20T20:43:08.890Z,17.83
2023-11-20T20:45:38.019Z,17.13
2023-11-20T20:48:06.837Z,19.85
2023-11-20T20:50:34.959Z,19.75
2023-11-20T20:53:03.597Z,18.23
2023-11-20T20:55:31.797Z,17.92
2023-11-20T20:58:00.422Z,16.95
2023-11-20T21:00:32.553Z,16.75
2023-11-20T21:03:00.549Z,16.67
2023-11-20T21:05:30.652Z,17.60
2023-11-20T21:07:58.868Z,23.80
2023-11-20T21:10:27.191Z,18.42
2023-11-20T21:12:55.206Z,14.93
2023-11-20T21:15:25.090Z,17.67
2023-11-20T21:17:54.524Z,14.10
2023-11-20T21:20:22.507Z,17.33
2023-11-20T21:22:50.705Z,17.35
2023-11-20T21:25:21.285Z,15.98
2023-11-20T21:27:49.430Z,16.15
2023-11-20T21:30:18.242Z,15.95
2023-11-20T21:32:46.161Z,16.23
2023-11-20T21:35:15.609Z,19.33
2023-11-20T21:37:43.788Z,19.05
2023-11-20T21:40:12.783Z,15.85
2023-11-20T21:42:41.043Z,16.25
2023-11-20T21:45:09.637Z,14.30
2023-11-20T21:47:38.499Z,16.23
2023-11-20T21:50:09.449Z,14.88
2023-11-20T21:52:39.961Z,14.00
2023-11-20T21:55:09.457Z,14.43
2023-11-20T21:57:38.269Z,16.92
2023-11-20T22:00:08.123Z,16.55
2023-11-20T22:02:36.211Z,15.18
2023-11-20T22:05:06.070Z,15.70
2023-11-20T22:07:34.161Z,35.22
2023-11-20T22:10:03.546Z,22.98
2023-11-20T22:12:31.541Z,19.80
2023-11-20T22:15:00.215Z,15.95
2023-11-20T22:17:28.986Z,19.58
2023-11-20T22:19:57.303Z,16.02
2023-11-20T22:22:25.376Z,13.27
2023-11-20T22:24:53.532Z,10.65
2023-11-20T22:27:22.843Z,9.93
2023-11-20T22:29:51.019Z,11.38
2023-11-20T22:32:19.392Z,9.98
2023-11-20T22:34:55.135Z,15.02
2023-11-20T22:37:30.723Z,12.68
2023-11-20T22:39:58.661Z,10.35
2023-11-20T22:42:28.743Z,9.63
2023-11-20T22:44:57.788Z,8.80
2023-11-20T22:47:25.665Z,8.85
2023-11-20T22:49:54.221Z,9.65
2023-11-20T22:52:23.721Z,9.57
2023-11-20T22:54:51.595Z,10.63
2023-11-20T22:57:19.738Z,8.57
2023-11-20T22:59:49.752Z,9.20
2023-11-20T23:02:18.016Z,9.60
2023-11-20T23:04:46.160Z,9.88
2023-11-20T23:07:14.121Z,11.68
2023-11-20T23:09:42.086Z,11.70
2023-11-20T23:12:10.014Z,13.40
2023-11-20T23:14:37.837Z,9.95
2023-11-20T23:17:07.285Z,10.20
2023-11-20T23:19:35.613Z,8.80
2023-11-20T23:22:03.865Z,9.68
2023-11-20T23:24:31.744Z,8.98
2023-11-20T23:26:59.695Z,9.80
2023-11-20T23:29:27.676Z,8.05
2023-11-20T23:31:55.681Z,10.85
2023-11-20T23:34:25.918Z,10.07
2023-11-20T23:36:53.810Z,9.07
2023-11-20T23:39:22.299Z,9.35
2023-11-20T23:41:50.924Z,9.98
2023-11-20T23:44:19.055Z,9.18
2023-11-20T23:46:48.228Z,10.57
2023-11-20T23:49:16.193Z,11.02
2023-11-20T23:51:45.753Z,12.00
2023-11-20T23:54:13.646Z,12.38
2023-11-20T23:56:41.532Z,9.65
2023-11-20T23:59:10.723Z,10.82
